Time;durP1;ratioP1;P1;durP2;ratioP2;P2;SDS_P1;SDS_P2;PMS_P1;PMS_P2;Temp;Humidity;BMP_temperature;BMP_pressure;BME280_temperature;BME280_humidity;BME280_pressure;Samples;Min_cycle;Max_cycle;Signal;HPM_P1;HPM_P2
2021/05/11 00:01:28;;;;;;;5.72;3.20;;;13.30;99.90;;;;;;1878888;76;21503;-76
2021/05/11 00:03:54;;;;;;;5.17;3.40;;;13.40;99.90;;;;;;1878741;75;21581;-75
2021/05/11 00:06:20;;;;;;;5.55;3.58;;;13.40;99.90;;;;;;1874995;76;21083;-76
2021/05/11 00:08:46;;;;;;;6.03;3.80;;;13.40;99.90;;;;;;1879239;76;21113;-76
2021/05/11 00:11:12;;;;;;;6.17;3.95;;;13.40;99.90;;;;;;1878913;76;21055;-75
2021/05/11 00:13:39;;;;;;;3.98;3.17;;;13.40;99.90;;;;;;1878785;76;21083;-75
2021/05/11 00:16:05;;;;;;;4.33;3.10;;;13.50;99.90;;;;;;1878850;76;21083;-75
2021/05/11 00:18:33;;;;;;;4.85;3.27;;;13.50;99.90;;;;;;1878746;76;21146;-76
2021/05/11 00:20:59;;;;;;;5.87;3.40;;;13.50;99.90;;;;;;1878668;76;21531;-75
2021/05/11 00:23:25;;;;;;;4.00;2.77;;;13.40;99.90;;;;;;1878728;76;21087;-76
2021/05/11 00:25:51;;;;;;;4.45;2.95;;;13.40;99.90;;;;;;1878827;76;21145;-75
2021/05/11 00:28:17;;;;;;;3.70;2.90;;;13.30;99.90;;;;;;1878941;76;21191;-75
2021/05/11 00:30:43;;;;;;;3.65;2.87;;;13.40;99.90;;;;;;1878901;76;21149;-75
2021/05/11 00:33:10;;;;;;;4.62;3.30;;;13.40;99.90;;;;;;1878893;76;21079;-75
2021/05/11 00:35:36;;;;;;;6.65;3.45;;;13.30;99.90;;;;;;1878853;76;21087;-76
2021/05/11 00:38:02;;;;;;;5.83;3.92;;;13.30;99.90;;;;;;1878747;76;21573;-76
2021/05/11 00:40:28;;;;;;;5.20;3.25;;;13.20;99.90;;;;;;1878695;76;21424;-75
2021/05/11 00:42:54;;;;;;;8.38;5.33;;;13.20;99.90;;;;;;1878691;76;21612;-75
2021/05/11 00:45:20;;;;;;;8.05;4.72;;;13.20;99.90;;;;;;1878754;76;21519;-76
2021/05/11 00:47:46;;;;;;;7.90;4.50;;;13.30;99.90;;;;;;1878807;76;21523;-75
2021/05/11 00:50:12;;;;;;;6.42;4.08;;;13.30;99.90;;;;;;1878663;76;21408;-75
2021/05/11 00:52:39;;;;;;;6.00;4.20;;;13.30;99.90;;;;;;1878701;76;21082;-75
2021/05/11 00:55:05;;;;;;;5.35;4.20;;;13.30;99.90;;;;;;1878835;76;21082;-75
2021/05/11 00:57:32;;;;;;;6.67;3.87;;;13.30;99.90;;;;;;1878793;76;21055;-74
2021/05/11 00:59:58;;;;;;;6.62;3.95;;;13.40;99.90;;;;;;1878732;76;21180;-75
2021/05/11 01:02:24;;;;;;;6.37;3.87;;;13.40;99.90;;;;;;1878926;76;21096;-75
2021/05/11 01:04:50;;;;;;;5.67;4.30;;;13.20;99.90;;;;;;1878796;76;21043;-75
2021/05/11 01:07:16;;;;;;;7.87;4.97;;;13.20;99.90;;;;;;1878763;75;21111;-76
2021/05/11 01:09:42;;;;;;;7.53;4.50;;;13.20;99.90;;;;;;1878805;76;21144;-75
2021/05/11 01:12:08;;;;;;;9.50;5.15;;;13.10;99.90;;;;;;1878807;76;21111;-75
2021/05/11 01:14:35;;;;;;;9.38;5.25;;;13.10;99.90;;;;;;1878704;76;21052;-75
2021/05/11 01:17:02;;;;;;;7.47;4.37;;;13.10;99.90;;;;;;1879058;76;21086;-74
2021/05/11 01:19:40;;;;;;;9.05;4.25;;;13.10;99.90;;;;;;1878881;76;21079;-75
2021/05/11 01:24:48;;;;;;;7.80;4.65;;;13.10;99.90;;;;;;1878988;74;21102;-75
2021/05/11 01:32:43;;;;;;;9.95;4.22;;;13.20;99.90;;;;;;1878907;76;21177;-75
2021/05/11 01:56:23;;;;;;;;;;;12.80;99.90;;;;;;1881388;76;21239;-75
2021/05/11 02:23:05;;;;;;;9.43;4.53;;;13.00;99.90;;;;;;1878697;76;21230;-74
2021/05/11 02:25:31;;;;;;;6.60;4.55;;;13.00;99.90;;;;;;1878657;75;21467;-74
2021/05/11 02:27:57;;;;;;;6.67;4.67;;;13.00;99.90;;;;;;1878815;74;21499;-75
2021/05/11 02:30:23;;;;;;;11.25;5.20;;;13.10;99.90;;;;;;1878924;76;21443;-73
2021/05/11 02:32:49;;;;;;;8.25;5.15;;;13.10;99.90;;;;;;1878692;76;21503;-74
2021/05/11 02:35:15;;;;;;;11.70;5.10;;;13.10;99.90;;;;;;1878784;76;21523;-75
2021/05/11 02:37:41;;;;;;;9.95;5.78;;;13.10;99.90;;;;;;1878698;76;21051;-75
2021/05/11 02:40:08;;;;;;;10.98;6.17;;;13.20;99.90;;;;;;1878782;76;21110;-73
2021/05/11 02:42:34;;;;;;;14.87;5.50;;;13.10;99.90;;;;;;1878836;75;21499;-73
2021/05/11 02:45:02;;;;;;;13.00;5.50;;;13.10;99.90;;;;;;1878737;75;21137;-73
2021/05/11 02:47:28;;;;;;;13.32;6.45;;;13.10;99.90;;;;;;1878852;76;21572;-73
2021/05/11 02:49:54;;;;;;;15.48;6.40;;;13.10;99.90;;;;;;1878710;76;21421;-74
2021/05/11 02:52:20;;;;;;;14.93;6.20;;;13.10;99.90;;;;;;1878737;76;21635;-74
2021/05/11 02:54:47;;;;;;;10.30;5.65;;;13.20;99.90;;;;;;1878596;76;21577;-73
2021/05/11 02:57:13;;;;;;;13.10;6.45;;;13.20;99.90;;;;;;1878852;76;21428;-74
2021/05/11 02:59:39;;;;;;;12.63;6.03;;;13.30;99.90;;;;;;1878752;76;21075;-73
2021/05/11 03:02:05;;;;;;;10.88;6.10;;;13.20;99.90;;;;;;1878960;76;21079;-74
2021/05/11 03:04:31;;;;;;;10.72;5.20;;;13.20;99.90;;;;;;1878808;76;21071;-73
2021/05/11 03:06:58;;;;;;;10.25;5.62;;;13.30;99.90;;;;;;1878831;76;21070;-73
2021/05/11 03:09:24;;;;;;;9.73;4.55;;;13.30;99.90;;;;;;1878931;76;21166;-74
2021/05/11 03:11:50;;;;;;;9.20;5.03;;;13.30;99.90;;;;;;1878815;76;21083;-73
2021/05/11 03:14:16;;;;;;;8.13;5.05;;;13.40;99.90;;;;;;1878733;76;21059;-74
2021/05/11 03:16:43;;;;;;;9.75;5.00;;;13.40;99.90;;;;;;1878766;76;21491;-73
2021/05/11 03:19:09;;;;;;;13.40;5.97;;;13.30;99.90;;;;;;1878805;76;21160;-74
2021/05/11 03:21:35;;;;;;;8.70;4.97;;;13.30;99.90;;;;;;1878859;76;21153;-73
2021/05/11 03:24:02;;;;;;;8.55;4.70;;;13.30;99.90;;;;;;1878755;76;21075;-73
2021/05/11 03:26:28;;;;;;;9.60;4.37;;;13.30;99.90;;;;;;1878746;76;21549;-73
2021/05/11 03:28:54;;;;;;;9.05;4.65;;;13.30;99.90;;;;;;1878813;76;21519;-73
2021/05/11 03:31:20;;;;;;;8.15;4.53;;;13.30;99.90;;;;;;1878807;74;21459;-74
2021/05/11 03:33:47;;;;;;;10.38;3.95;;;13.30;99.90;;;;;;1879041;76;21095;-74
2021/05/11 03:36:13;;;;;;;5.50;3.75;;;13.20;99.90;;;;;;1879058;75;21145;-74
2021/05/11 03:38:39;;;;;;;7.15;3.83;;;13.20;99.90;;;;;;1879155;76;21141;-74
2021/05/11 03:41:05;;;;;;;7.00;4.35;;;13.20;99.90;;;;;;1879194;76;21597;-73
2021/05/11 03:43:38;;;;;;;7.33;4.25;;;13.20;99.90;;;;;;1880017;76;21528;-74
2021/05/11 03:46:05;;;;;;;4.78;3.35;;;13.20;99.90;;;;;;1880787;76;21100;-74
2021/05/11 03:48:27;;;;;;;8.05;4.47;;;13.20;99.90;;;;;;1881290;76;21139;-75
2021/05/11 03:50:53;;;;;;;7.75;3.83;;;13.20;99.90;;;;;;1882546;76;21052;-75
2021/05/11 03:53:19;;;;;;;11.40;5.15;;;13.20;99.90;;;;;;1882599;75;21040;-74
2021/05/11 03:55:47;;;;;;;10.18;4.03;;;13.30;99.90;;;;;;1879494;76;21108;-75
2021/05/11 03:58:13;;;;;;;6.50;3.58;;;13.30;99.90;;;;;;1879110;76;21071;-74
2021/05/11 04:00:39;;;;;;;8.00;4.25;;;13.30;99.90;;;;;;1879314;76;21107;-74
2021/05/11 04:03:05;;;;;;;8.40;4.20;;;13.30;99.90;;;;;;1879175;75;21092;-74
2021/05/11 04:05:32;;;;;;;7.28;3.72;;;13.30;99.90;;;;;;1879333;76;21215;-74
2021/05/11 04:08:00;;;;;;;8.00;4.35;;;13.30;99.90;;;;;;1879295;76;21194;-75
2021/05/11 04:10:35;;;;;;;14.80;5.47;;;13.30;99.90;;;;;;1879464;75;21149;-75
2021/05/11 04:18:25;;;;;;;11.03;4.90;;;13.30;99.90;;;;;;1867654;76;21519;-74
2021/05/11 04:20:51;;;;;;;9.78;5.45;;;13.30;99.90;;;;;;1863488;77;21508;-74
2021/05/11 04:23:17;;;;;;;10.00;5.30;;;13.20;99.90;;;;;;1863480;77;21550;-74
2021/05/11 04:25:44;;;;;;;9.78;5.12;;;13.20;99.90;;;;;;1863376;77;21539;-74
2021/05/11 04:28:12;;;;;;;14.38;5.92;;;13.40;99.90;;;;;;1857052;76;21498;-75
2021/05/11 04:30:37;;;;;;;13.35;5.25;;;13.40;99.90;;;;;;1878143;76;21142;-74
2021/05/11 04:33:04;;;;;;;9.03;5.40;;;13.40;99.90;;;;;;1878544;76;21079;-74
2021/05/11 04:35:30;;;;;;;11.75;5.53;;;13.40;99.90;;;;;;1878475;75;21078;-74
2021/05/11 04:37:56;;;;;;;12.47;5.80;;;13.30;99.90;;;;;;1878591;76;21087;-74
2021/05/11 04:40:22;;;;;;;8.65;5.50;;;13.20;99.90;;;;;;1882557;75;21090;-75
2021/05/11 04:42:48;;;;;;;15.88;6.28;;;13.20;99.90;;;;;;1890807;76;21196;-76
2021/05/11 04:45:19;;;;;;;13.78;6.17;;;13.30;99.90;;;;;;1883363;76;21160;-76
2021/05/11 04:47:51;;;;;;;16.93;6.47;;;13.40;99.90;;;;;;1878352;76;21108;-77
2021/05/11 04:50:17;;;;;;;12.20;5.95;;;13.50;99.90;;;;;;1879303;76;21158;-77
2021/05/11 04:52:43;;;;;;;9.28;5.83;;;13.50;99.90;;;;;;1879433;76;21079;-77
2021/05/11 04:55:09;;;;;;;12.40;6.30;;;13.50;99.90;;;;;;1879418;76;21154;-77
2021/05/11 04:57:36;;;;;;;12.63;6.37;;;13.50;99.90;;;;;;1879369;75;21168;-77
2021/05/11 05:00:03;;;;;;;15.03;6.15;;;13.50;99.90;;;;;;1879391;76;21087;-77
2021/05/11 05:02:30;;;;;;;10.75;5.87;;;13.50;99.90;;;;;;1879378;76;21084;-78
2021/05/11 05:04:56;;;;;;;12.63;6.30;;;13.50;99.90;;;;;;1879342;75;21107;-78
2021/05/11 05:07:22;;;;;;;10.85;5.78;;;13.60;99.90;;;;;;1879385;76;21083;-77
2021/05/11 05:09:48;;;;;;;12.23;6.97;;;13.60;99.90;;;;;;1879427;76;21150;-77
2021/05/11 05:12:14;;;;;;;13.45;7.15;;;13.60;99.90;;;;;;1879298;76;21203;-77
2021/05/11 05:14:40;;;;;;;12.15;6.45;;;13.50;99.90;;;;;;1879341;76;21083;-77
2021/05/11 05:17:06;;;;;;;16.67;7.03;;;13.40;99.90;;;;;;1879252;76;21108;-75
2021/05/11 05:19:34;;;;;;;13.98;6.83;;;13.40;99.90;;;;;;1879306;76;21189;-77
2021/05/11 05:22:01;;;;;;;24.12;7.33;;;13.30;99.90;;;;;;1879334;76;21100;-77
2021/05/11 05:24:32;;;;;;;15.95;6.53;;;13.40;99.90;;;;;;1879470;75;21168;-75
2021/05/11 05:26:59;;;;;;;14.03;7.15;;;13.50;99.90;;;;;;1878408;76;21263;-77
2021/05/11 05:29:23;;;;;;;15.90;6.83;;;13.60;99.90;;;;;;1878593;76;21100;-76
2021/05/11 05:31:49;;;;;;;14.53;7.08;;;13.40;99.90;;;;;;1879392;76;21052;-76
2021/05/11 05:34:15;;;;;;;11.45;6.95;;;13.20;99.90;;;;;;1879244;76;21112;-76
2021/05/11 05:36:41;;;;;;;15.50;7.03;;;13.20;99.90;;;;;;1879342;75;21087;-79
2021/05/11 05:39:07;;;;;;;19.25;7.83;;;13.20;99.90;;;;;;1879174;75;21087;-76
2021/05/11 05:41:34;;;;;;;33.48;7.87;;;13.30;99.90;;;;;;1879226;76;21072;-79
2021/05/11 05:44:00;;;;;;;17.65;6.22;;;13.30;99.90;;;;;;1879440;76;21596;-75
2021/05/11 05:46:27;;;;;;;14.05;6.08;;;13.30;99.90;;;;;;1879278;76;21547;-76
2021/05/11 05:48:53;;;;;;;22.45;7.30;;;13.30;99.90;;;;;;1879299;74;21443;-76
2021/05/11 05:51:20;;;;;;;17.77;7.17;;;13.30;99.90;;;;;;1879237;76;21094;-76
2021/05/11 05:53:46;;;;;;;12.85;6.45;;;13.30;99.90;;;;;;1879349;76;21106;-76
2021/05/11 05:56:13;;;;;;;13.43;6.47;;;13.30;99.90;;;;;;1879130;76;21098;-75
2021/05/11 05:58:39;;;;;;;14.18;6.97;;;13.30;99.90;;;;;;1879280;76;21218;-76
2021/05/11 06:01:10;;;;;;;14.28;6.95;;;13.20;99.90;;;;;;1879353;76;21052;-76
2021/05/11 06:06:03;;;;;;;12.13;5.97;;;13.30;99.90;;;;;;1879277;76;21074;-76
2021/05/11 06:08:29;;;;;;;15.88;6.05;;;13.30;99.90;;;;;;1879190;75;21213;-75
2021/05/11 06:11:14;;;;;;;15.15;5.72;;;13.30;99.90;;;;;;1879350;76;21083;-75
2021/05/11 06:13:42;;;;;;;13.50;5.58;;;13.50;99.90;;;;;;1876430;76;21425;-75
2021/05/11 06:18:50;;;;;;;13.08;5.55;;;13.70;99.90;;;;;;1879361;76;21173;-75
2021/05/11 06:21:16;;;;;;;14.30;6.00;;;13.70;99.90;;;;;;1879092;76;21119;-76
2021/05/11 06:23:43;;;;;;;8.78;5.37;;;13.70;99.90;;;;;;1879291;76;21082;-76
2021/05/11 06:26:09;;;;;;;11.18;5.35;;;13.80;99.90;;;;;;1879232;76;21158;-76
2021/05/11 06:28:38;;;;;;;10.00;5.72;;;13.80;99.90;;;;;;1879220;76;21522;-75
2021/05/11 06:31:03;;;;;;;11.20;5.97;;;13.80;99.90;;;;;;1878891;76;21108;-76
2021/05/11 06:33:29;;;;;;;13.98;5.60;;;13.80;99.90;;;;;;1879106;76;21115;-75
2021/05/11 06:35:55;;;;;;;9.20;5.40;;;13.90;99.90;;;;;;1879150;76;21091;-76
2021/05/11 06:38:22;;;;;;;10.45;5.80;;;14.10;99.90;;;;;;1879234;76;21100;-75
2021/05/11 06:40:49;;;;;;;11.57;5.30;;;14.20;99.90;;;;;;1879339;75;21189;-74
2021/05/11 06:43:23;;;;;;;10.55;5.85;;;14.20;99.90;;;;;;1879509;76;21186;-75
2021/05/11 06:48:21;;;;;;;11.22;6.35;;;14.20;99.90;;;;;;1879452;76;21107;-75
2021/05/11 06:52:40;;;;;;;11.12;6.03;;;14.30;99.90;;;;;;1882106;76;21100;-74
2021/05/11 06:53:12;;;;;;;11.03;5.65;;;14.30;99.90;;;;;;1875332;76;21097;-76
2021/05/11 06:55:45;;;;;;;11.22;5.35;;;14.30;99.90;;;;;;1879569;75;21165;-75
2021/05/11 06:58:07;;;;;;;11.05;5.80;;;14.20;99.90;;;;;;1877392;76;21099;-74
2021/05/11 07:00:35;;;;;;;13.55;5.20;;;14.30;99.90;;;;;;1879563;76;21100;-75
2021/05/11 07:03:01;;;;;;;19.80;5.62;;;14.40;99.90;;;;;;1879535;76;21567;-75
2021/05/11 07:05:31;;;;;;;7.78;4.90;;;14.50;99.90;;;;;;1879572;74;21182;-75
2021/05/11 07:08:05;;;;;;;8.50;4.80;;;14.40;99.90;;;;;;1879521;76;21662;-76
2021/05/11 07:10:31;;;;;;;12.05;5.28;;;14.60;99.90;;;;;;1878450;76;21100;-78
2021/05/11 07:13:12;;;;;;;9.55;4.55;;;14.60;99.90;;;;;;1878630;76;21133;-77
2021/05/11 07:15:39;;;;;;;10.53;4.70;;;14.70;99.90;;;;;;1879724;76;21152;-78
2021/05/11 07:18:06;;;;;;;10.48;5.72;;;14.30;99.90;;;;;;1879589;76;21107;-77
2021/05/11 07:20:32;;;;;;;11.80;5.35;;;14.20;99.90;;;;;;1880124;76;21182;-80
2021/05/11 07:22:58;;;;;;;13.28;5.70;;;14.30;99.90;;;;;;1880294;76;21146;-79
2021/05/11 07:25:26;;;;;;;9.23;4.95;;;14.30;99.90;;;;;;1880126;76;21160;-80
2021/05/11 07:30:28;;;;;;;7.53;3.90;;;14.50;99.90;;;;;;1832977;76;21100;-79
2021/05/11 07:32:54;;;;;;;8.75;4.92;;;14.50;99.90;;;;;;1879408;76;21116;-79
2021/05/11 07:35:20;;;;;;;9.00;4.28;;;14.50;99.90;;;;;;1879856;76;21117;-80
2021/05/11 07:37:46;;;;;;;7.22;4.22;;;14.60;99.90;;;;;;1879849;76;21080;-80
2021/05/11 07:40:12;;;;;;;6.65;4.00;;;14.60;99.90;;;;;;1879444;76;21119;-80
2021/05/11 07:42:38;;;;;;;9.90;3.80;;;14.70;99.90;;;;;;1879359;76;21125;-80
2021/05/11 07:45:06;;;;;;;11.15;4.20;;;14.80;99.90;;;;;;1879248;76;21460;-80
2021/05/11 08:14:35;;;;;;;5.25;3.30;;;14.80;99.90;;;;;;1879228;76;21170;-80
2021/05/11 08:16:59;;;;;;;6.30;2.90;;;15.00;99.90;;;;;;1878331;76;21547;-80
2021/05/11 08:23:08;;;;;;;5.08;3.60;;;14.90;99.90;;;;;;1878423;76;21122;-80
2021/05/11 08:30:04;;;;;;;8.48;3.27;;;15.50;99.90;;;;;;1879197;76;21095;-80
2021/05/11 08:32:31;;;;;;;5.60;3.25;;;15.90;99.90;;;;;;1879315;76;21164;-80
2021/05/11 08:34:57;;;;;;;5.28;3.40;;;15.80;99.90;;;;;;1879211;75;21513;-79
2021/05/11 08:37:23;;;;;;;4.90;3.58;;;15.80;99.90;;;;;;1879304;74;21534;-80
2021/05/11 08:39:49;;;;;;;5.40;3.12;;;15.90;99.90;;;;;;1879261;75;21649;-79
2021/05/11 08:42:15;;;;;;;7.92;3.90;;;15.90;99.90;;;;;;1879564;76;21092;-79
2021/05/11 08:44:41;;;;;;;6.03;3.42;;;15.80;99.90;;;;;;1879584;76;21380;-80
2021/05/11 08:47:07;;;;;;;7.62;3.75;;;15.80;99.90;;;;;;1879418;76;21515;-79
2021/05/11 08:49:33;;;;;;;3.75;2.77;;;15.80;99.90;;;;;;1879186;76;21592;-79
2021/05/11 08:52:05;;;;;;;5.17;2.98;;;15.70;99.90;;;;;;1879190;76;21543;-80
2021/05/11 09:04:31;;;;;;;5.08;2.70;;;16.00;99.90;;;;;;1879189;76;21157;-79
2021/05/11 09:08:00;;;;;;;3.95;2.40;;;15.90;99.90;;;;;;1879133;76;21107;-80
2021/05/11 09:23:38;;;;;;;2.47;1.62;;;16.20;99.90;;;;;;1879535;76;21151;-79
2021/05/11 09:26:10;;;;;;;2.05;1.70;;;16.60;99.90;;;;;;1878699;75;21178;-79
2021/05/11 09:28:36;;;;;;;4.72;1.85;;;16.80;99.90;;;;;;1877805;75;21154;-80
2021/05/11 09:31:20;;;;;;;3.17;1.52;;;16.90;99.90;;;;;;1878203;76;21162;-80
2021/05/11 09:33:58;;;;;;;2.77;1.67;;;17.00;99.90;;;;;;1877180;76;21528;-79
2021/05/11 09:55:54;;;;;;;3.35;1.47;;;16.90;99.90;;;;;;1879270;76;21205;-78
2021/05/11 09:58:05;;;;;;;3.12;1.40;;;17.10;99.90;;;;;;1873496;76;21082;-78
2021/05/11 10:01:16;;;;;;;2.42;1.20;;;17.20;99.90;;;;;;1877421;76;21152;-78
2021/05/11 10:11:59;;;;;;;1.45;1.25;;;17.10;99.90;;;;;;1881675;75;21094;-79
2021/05/11 10:31:23;;;;;;;9.28;2.10;;;17.10;99.90;;;;;;1878906;76;21064;-80
2021/05/11 10:43:45;;;;;;;2.95;1.55;;;17.10;99.90;;;;;;1878927;75;21123;-77
2021/05/11 10:47:43;;;;;;;1.50;1.37;;;17.00;99.90;;;;;;1878843;76;21120;-77
2021/05/11 10:50:09;;;;;;;2.55;1.67;;;17.10;99.90;;;;;;1879091;74;21538;-80
2021/05/11 10:52:41;;;;;;;5.37;2.08;;;16.90;99.90;;;;;;1879126;76;21160;-79
2021/05/11 10:57:43;;;;;;;;;;;16.90;99.90;;;;;;1881952;75;21119;-79
2021/05/11 11:00:13;;;;;;;7.00;2.58;;;17.10;99.90;;;;;;1877171;76;20137;-77
2021/05/11 11:05:04;;;;;;;2.83;1.95;;;17.30;99.90;;;;;;1882293;76;20173;-78
2021/05/11 11:07:31;;;;;;;2.92;1.82;;;17.30;99.90;;;;;;1880346;76;21103;-78
2021/05/11 11:09:57;;;;;;;3.42;1.92;;;17.10;99.90;;;;;;1882275;76;21118;-79
2021/05/11 11:12:25;;;;;;;5.08;2.02;;;17.00;99.90;;;;;;1879524;76;21063;-77
2021/05/11 11:14:51;;;;;;;5.85;1.57;;;16.90;99.90;;;;;;1879010;76;21235;-78
2021/05/11 11:17:17;;;;;;;2.17;1.35;;;17.10;99.90;;;;;;1879023;76;21498;-80
2021/05/11 11:19:43;;;;;;;2.20;1.25;;;17.40;99.90;;;;;;1878833;76;21396;-78
2021/05/11 11:24:53;;;;;;;2.25;1.70;;;17.80;99.90;;;;;;1867916;75;21166;-77
2021/05/11 11:27:19;;;;;;;2.05;1.82;;;17.90;99.90;;;;;;1863070;77;21161;-77
2021/05/11 11:29:46;;;;;;;3.90;2.15;;;17.80;99.90;;;;;;1863190;77;21154;-76
2021/05/11 11:32:12;;;;;;;4.20;1.90;;;17.50;99.90;;;;;;1863131;77;21464;-75
2021/05/11 11:34:40;;;;;;;3.58;2.37;;;17.80;99.90;;;;;;1863034;77;21612;-76
2021/05/11 11:37:07;;;;;;;3.95;2.40;;;17.80;99.90;;;;;;1863038;77;21165;-76
2021/05/11 11:39:34;;;;;;;3.15;1.98;;;17.70;99.90;;;;;;1863818;77;21084;-78
2021/05/11 11:42:00;;;;;;;9.73;2.30;;;17.90;99.90;;;;;;1864355;77;21169;-78
2021/05/11 11:44:28;;;;;;;6.60;2.40;;;18.00;99.90;;;;;;1864137;77;21166;-78
2021/05/11 11:46:54;;;;;;;6.45;2.72;;;17.40;99.90;;;;;;1863641;77;21057;-78
2021/05/11 11:49:21;;;;;;;4.05;2.42;;;17.20;99.90;;;;;;1863719;77;21125;-78
2021/05/11 11:51:52;;;;;;;5.95;2.90;;;17.50;99.90;;;;;;1863591;77;21256;-77
2021/05/11 11:54:25;;;;;;;6.67;2.30;;;17.40;99.90;;;;;;1862899;77;21634;-77
2021/05/11 11:59:27;;;;;;;10.78;3.30;;;17.90;99.90;;;;;;1863486;77;21109;-77
2021/05/11 12:01:53;;;;;;;6.67;3.27;;;18.00;99.90;;;;;;1863381;77;21161;-77
2021/05/11 12:04:19;;;;;;;7.55;3.02;;;18.00;99.90;;;;;;1863541;77;21208;-78
2021/05/11 12:06:48;;;;;;;10.65;3.60;;;18.00;99.90;;;;;;1863481;77;21048;-77
2021/05/11 12:09:13;;;;;;;4.45;2.92;;;18.00;99.90;;;;;;1863077;77;21104;-78
2021/05/11 12:11:39;;;;;;;5.70;3.33;;;17.90;99.90;;;;;;1863200;77;21165;-78
2021/05/11 12:14:05;;;;;;;5.40;3.55;;;18.10;99.90;;;;;;1863149;77;21049;-78
2021/05/11 12:16:32;;;;;;;6.50;3.40;;;18.10;99.90;;;;;;1863124;77;21076;-78
2021/05/11 12:19:06;;;;;;;10.68;3.62;;;18.30;99.90;;;;;;1863190;77;21137;-78
2021/05/11 12:21:31;;;;;;;4.33;3.30;;;18.20;99.90;;;;;;1862971;77;21089;-78
2021/05/11 12:23:57;;;;;;;6.92;3.50;;;18.20;99.90;;;;;;1863065;77;21079;-78
2021/05/11 12:26:24;;;;;;;4.12;2.92;;;18.10;99.90;;;;;;1863160;77;21172;-77
2021/05/11 12:28:50;;;;;;;4.67;3.25;;;18.40;99.90;;;;;;1863099;77;21071;-77
2021/05/11 12:31:17;;;;;;;4.05;2.75;;;18.20;99.90;;;;;;1863163;77;21148;-78
2021/05/11 12:33:43;;;;;;;5.35;3.55;;;18.10;99.90;;;;;;1863124;77;21158;-78
2021/05/11 12:36:09;;;;;;;9.00;2.72;;;18.20;99.90;;;;;;1863297;77;21154;-78
2021/05/11 12:38:35;;;;;;;9.73;3.42;;;18.40;99.90;;;;;;1864021;77;21157;-78
2021/05/11 12:43:29;;;;;;;3.10;2.35;;;18.00;99.90;;;;;;1863710;77;21189;-75
2021/05/11 12:45:56;;;;;;;3.42;2.60;;;18.20;99.90;;;;;;1863706;77;21051;-77
2021/05/11 12:48:23;;;;;;;6.55;2.60;;;18.40;99.90;;;;;;1863688;77;21157;-77
2021/05/11 12:50:49;;;;;;;6.03;2.67;;;18.50;99.90;;;;;;1863589;77;21077;-77
2021/05/11 12:53:15;;;;;;;6.00;2.37;;;18.40;99.90;;;;;;1863627;77;21071;-78
2021/05/11 12:58:27;;;;;;;2.50;1.90;;;18.60;99.90;;;;;;1863502;77;21108;-78
2021/05/11 13:00:49;;;;;;;2.72;1.70;;;18.90;99.90;;;;;;1862644;76;21163;-79
2021/05/11 13:03:21;;;;;;;4.10;1.57;;;19.00;99.90;;;;;;1863614;77;21056;-79
2021/05/11 13:22:15;;;;;;;4.37;2.33;;;18.30;99.90;;;;;;1863846;77;21076;-77
2021/05/11 13:27:21;;;;;;;4.80;2.10;;;18.20;99.90;;;;;;1863438;77;21124;-78
2021/05/11 13:33:02;;;;;;;3.72;2.58;;;17.90;99.90;;;;;;1863188;77;21152;-79
2021/05/11 13:34:45;;;;;;;3.77;3.00;;;17.60;99.90;;;;;;1835798;76;21114;-79
2021/05/11 13:37:11;;;;;;;2.80;2.35;;;17.50;99.90;;;;;;1863083;77;21083;-78
2021/05/11 13:39:37;;;;;;;9.03;2.42;;;17.40;99.90;;;;;;1863216;77;21141;-79
2021/05/11 13:42:03;;;;;;;4.45;2.10;;;17.30;99.90;;;;;;1863029;77;21076;-79
2021/05/11 13:44:29;;;;;;;2.58;2.27;;;17.10;99.90;;;;;;1863238;77;21160;-79
2021/05/11 13:46:56;;;;;;;2.05;1.60;;;17.00;99.90;;;;;;1862958;77;21075;-78
2021/05/11 13:49:22;;;;;;;2.72;1.57;;;16.90;99.90;;;;;;1863197;77;21153;-78
2021/05/11 13:51:48;;;;;;;2.65;2.17;;;16.80;99.90;;;;;;1863118;77;21088;-79
2021/05/11 13:54:17;;;;;;;2.35;1.70;;;16.70;99.90;;;;;;1863158;77;21467;-79
2021/05/11 13:57:32;;;;;;;2.80;1.95;;;16.50;99.90;;;;;;1862908;77;21124;-78
2021/05/11 14:02:12;;;;;;;8.78;2.65;;;16.40;99.90;;;;;;1863071;77;21072;-80
2021/05/11 14:04:27;;;;;;;7.25;2.83;;;16.30;99.90;;;;;;1860533;77;21510;-79
2021/05/11 14:06:53;;;;;;;3.60;2.40;;;16.20;99.90;;;;;;1863180;77;21075;-79
2021/05/11 14:09:19;;;;;;;3.70;2.33;;;16.00;99.90;;;;;;1863009;77;21095;-79
2021/05/11 14:11:45;;;;;;;5.72;2.87;;;15.90;99.90;;;;;;1863069;77;21158;-79
2021/05/11 14:14:11;;;;;;;3.72;2.50;;;15.90;99.90;;;;;;1862917;77;21080;-77
2021/05/11 14:16:37;;;;;;;3.77;2.47;;;15.70;99.90;;;;;;1863060;77;21177;-77
2021/05/11 14:19:03;;;;;;;4.55;2.70;;;15.80;99.90;;;;;;1863098;77;21052;-77
2021/05/11 14:21:29;;;;;;;10.13;3.30;;;15.70;99.90;;;;;;1863111;77;21122;-76
2021/05/11 14:23:56;;;;;;;20.25;3.95;;;15.60;99.90;;;;;;1863080;77;21149;-77
2021/05/11 14:26:22;;;;;;;7.95;3.10;;;15.60;99.90;;;;;;1863114;77;21157;-74
2021/05/11 14:28:49;;;;;;;4.80;2.77;;;15.50;99.90;;;;;;1863216;77;21364;-80
2021/05/11 14:31:15;;;;;;;3.62;2.72;;;15.40;99.90;;;;;;1863561;77;21055;-76
2021/05/11 14:33:41;;;;;;;5.25;2.70;;;15.30;99.90;;;;;;1863702;77;21075;-78
2021/05/11 14:36:08;;;;;;;3.80;2.65;;;15.30;99.90;;;;;;1863614;77;21088;-71
2021/05/11 14:38:34;;;;;;;2.70;2.30;;;15.20;99.90;;;;;;1863836;77;21049;-76
2021/05/11 14:41:03;;;;;;;2.15;1.60;;;15.20;99.90;;;;;;1863766;77;21071;-77
2021/05/11 14:43:30;;;;;;;2.58;1.82;;;15.10;99.90;;;;;;1863741;77;21205;-77
2021/05/11 14:45:56;;;;;;;2.47;2.12;;;15.10;99.90;;;;;;1863754;77;21515;-76
2021/05/11 14:48:22;;;;;;;2.98;1.90;;;15.10;99.90;;;;;;1863722;77;21530;-75
2021/05/11 14:50:48;;;;;;;2.50;1.42;;;15.00;99.90;;;;;;1864465;77;21507;-75
2021/05/11 14:53:14;;;;;;;5.25;2.15;;;15.00;99.90;;;;;;1864668;77;21472;-76
2021/05/11 14:55:42;;;;;;;2.52;1.87;;;15.00;99.90;;;;;;1863682;77;21119;-77
2021/05/11 14:58:08;;;;;;;3.30;1.30;;;14.90;99.90;;;;;;1863495;77;21146;-78
2021/05/11 15:00:34;;;;;;;1.67;1.32;;;14.90;99.90;;;;;;1863702;77;21157;-77
2021/05/11 15:05:46;;;;;;;1.45;1.30;;;15.00;99.90;;;;;;1863797;77;21084;-75
2021/05/11 15:08:14;;;;;;;1.72;1.37;;;15.00;99.90;;;;;;1863599;77;21079;-74
2021/05/11 15:10:40;;;;;;;5.12;1.00;;;15.00;99.90;;;;;;1863599;77;21204;-74
2021/05/11 15:13:06;;;;;;;1.12;1.07;;;14.90;99.90;;;;;;1864021;77;21083;-74
2021/05/11 15:15:34;;;;;;;1.95;1.15;;;14.80;99.90;;;;;;1864294;77;21519;-74
2021/05/11 15:18:05;;;;;;;1.37;0.95;;;14.80;99.90;;;;;;1863596;77;21072;-77
2021/05/11 15:20:28;;;;;;;2.15;0.95;;;14.70;99.90;;;;;;1861509;77;21200;-75
2021/05/11 15:22:54;;;;;;;1.15;0.80;;;14.70;99.90;;;;;;1863461;77;21083;-75
2021/05/11 15:25:21;;;;;;;2.35;0.80;;;14.60;99.90;;;;;;1863381;77;21079;-75
2021/05/11 15:27:47;;;;;;;0.57;0.57;;;14.60;99.90;;;;;;1863550;77;21522;-75
2021/05/11 15:30:13;;;;;;;0.90;0.50;;;14.50;99.90;;;;;;1863549;77;21499;-75
2021/05/11 15:32:40;;;;;;;2.83;0.82;;;14.50;99.90;;;;;;1863557;77;21543;-73
2021/05/11 15:35:06;;;;;;;3.02;0.60;;;14.40;99.90;;;;;;1863574;77;21103;-73
2021/05/11 15:37:32;;;;;;;2.60;1.07;;;14.40;99.90;;;;;;1863506;77;21162;-74
2021/05/11 15:39:58;;;;;;;0.70;0.70;;;14.30;99.90;;;;;;1863526;77;21079;-73
2021/05/11 15:42:24;;;;;;;1.25;0.60;;;14.30;99.90;;;;;;1863502;77;21083;-74
2021/05/11 15:44:50;;;;;;;1.00;0.70;;;14.30;99.90;;;;;;1863618;77;21096;-73
2021/05/11 15:47:18;;;;;;;2.30;0.80;;;14.30;99.90;;;;;;1863472;77;21095;-73
2021/05/11 15:49:46;;;;;;;4.28;0.68;;;14.30;99.90;;;;;;1862941;77;21178;-71
2021/05/11 15:52:12;;;;;;;0.60;0.47;;;14.30;99.90;;;;;;1863458;77;21053;-74
2021/05/11 15:54:38;;;;;;;4.33;0.72;;;14.30;99.90;;;;;;1863290;77;21088;-74
2021/05/11 15:57:04;;;;;;;0.68;0.60;;;14.20;99.90;;;;;;1863506;77;21083;-73
2021/05/11 15:59:31;;;;;;;0.65;0.65;;;14.10;99.90;;;;;;1863791;77;21080;-73
2021/05/11 16:01:57;;;;;;;0.60;0.60;;;14.10;99.90;;;;;;1863605;77;21049;-73
2021/05/11 16:04:23;;;;;;;0.70;0.70;;;14.10;99.90;;;;;;1863561;77;21153;-72
2021/05/11 16:06:49;;;;;;;2.08;1.05;;;14.00;99.90;;;;;;1863637;77;21099;-73
2021/05/11 16:09:15;;;;;;;2.37;0.80;;;14.00;99.90;;;;;;1863565;77;21092;-73
2021/05/11 16:11:41;;;;;;;1.20;0.40;;;14.00;99.90;;;;;;1863976;77;21114;-72
2021/05/11 16:14:07;;;;;;;5.00;0.60;;;14.00;99.90;;;;;;1863631;77;21047;-73
2021/05/11 16:16:34;;;;;;;1.15;0.65;;;13.90;99.90;;;;;;1863601;77;21055;-74
2021/05/11 16:19:00;;;;;;;0.78;0.78;;;13.90;99.90;;;;;;1863657;77;21217;-74
2021/05/11 16:21:26;;;;;;;2.00;0.82;;;13.90;99.90;;;;;;1863670;77;21120;-73
2021/05/11 16:23:55;;;;;;;3.70;0.75;;;14.00;99.90;;;;;;1859634;76;21091;-73
2021/05/11 16:26:21;;;;;;;3.67;0.65;;;14.00;99.90;;;;;;1863509;77;21143;-74
2021/05/11 16:28:49;;;;;;;1.32;0.70;;;14.00;99.90;;;;;;1863682;77;21499;-73
2021/05/11 16:31:14;;;;;;;2.35;1.22;;;14.00;99.90;;;;;;1864956;77;21097;-72